sensor_id;sensor_type;location;lat;lon;timestamp;P1;durP1;ratioP1;P2;durP2;ratioP2
2542;SDS011;1116;51.502;7.414;2022-10-23T00:00:03;2.67;;;2.30;;
2542;SDS011;1116;51.502;7.414;2022-10-23T00:02:35;4.27;;;2.20;;
2542;SDS011;1116;51.502;7.414;2022-10-23T00:05:07;3.83;;;2.33;;
2542;SDS011;1116;51.502;7.414;2022-10-23T00:07:41;6.50;;;2.83;;
2542;SDS011;1116;51.502;7.414;2022-10-23T00:10:11;2.47;;;1.77;;
2542;SDS011;1116;51.502;7.414;2022-10-23T00:12:42;3.77;;;2.00;;
2542;SDS011;1116;51.502;7.414;2022-10-23T00:15:14;2.33;;;1.90;;
2542;SDS011;1116;51.502;7.414;2022-10-23T00:17:47;4.13;;;2.33;;
2542;SDS011;1116;51.502;7.414;2022-10-23T00:20:18;3.70;;;2.30;;
2542;SDS011;1116;51.502;7.414;2022-10-23T00:22:52;3.87;;;2.17;;
2542;SDS011;1116;51.502;7.414;2022-10-23T00:25:27;4.47;;;2.40;;
2542;SDS011;1116;51.502;7.414;2022-10-23T00:27:59;5.20;;;2.40;;
2542;SDS011;1116;51.502;7.414;2022-10-23T00:30:30;4.50;;;2.33;;
2542;SDS011;1116;51.502;7.414;2022-10-23T00:33:01;3.40;;;2.60;;
2542;SDS011;1116;51.502;7.414;2022-10-23T00:35:32;4.67;;;2.20;;
2542;SDS011;1116;51.502;7.414;2022-10-23T00:38:05;2.47;;;2.10;;
2542;SDS011;1116;51.502;7.414;2022-10-23T00:40:37;3.87;;;2.27;;
2542;SDS011;1116;51.502;7.414;2022-10-23T00:43:12;5.20;;;2.43;;
2542;SDS011;1116;51.502;7.414;2022-10-23T00:45:47;3.47;;;2.50;;
2542;SDS011;1116;51.502;7.414;2022-10-23T00:48:18;6.30;;;2.80;;
2542;SDS011;1116;51.502;7.414;2022-10-23T00:50:49;2.07;;;1.87;;
2542;SDS011;1116;51.502;7.414;2022-10-23T00:53:23;6.80;;;2.30;;
2542;SDS011;1116;51.502;7.414;2022-10-23T00:56:01;2.33;;;2.10;;
2542;SDS011;1116;51.502;7.414;2022-10-23T00:58:32;3.80;;;2.63;;
2542;SDS011;1116;51.502;7.414;2022-10-23T01:01:13;4.70;;;2.30;;
2542;SDS011;1116;51.502;7.414;2022-10-23T01:03:46;2.90;;;2.40;;
2542;SDS011;1116;51.502;7.414;2022-10-23T01:06:20;4.17;;;2.23;;
2542;SDS011;1116;51.502;7.414;2022-10-23T01:09:02;3.80;;;2.07;;
2542;SDS011;1116;51.502;7.414;2022-10-23T01:11:39;4.03;;;2.60;;
2542;SDS011;1116;51.502;7.414;2022-10-23T01:14:16;3.03;;;2.73;;
2542;SDS011;1116;51.502;7.414;2022-10-23T01:16:55;4.30;;;2.90;;
2542;SDS011;1116;51.502;7.414;2022-10-23T01:19:36;8.90;;;5.80;;
2542;SDS011;1116;51.502;7.414;2022-10-23T01:22:19;11.47;;;7.60;;
2542;SDS011;1116;51.502;7.414;2022-10-23T01:25:05;12.50;;;8.83;;
2542;SDS011;1116;51.502;7.414;2022-10-23T01:27:47;13.93;;;10.40;;
2542;SDS011;1116;51.502;7.414;2022-10-23T01:30:21;10.33;;;8.50;;
2542;SDS011;1116;51.502;7.414;2022-10-23T01:32:53;11.10;;;8.50;;
2542;SDS011;1116;51.502;7.414;2022-10-23T01:35:28;10.63;;;7.60;;
2542;SDS011;1116;51.502;7.414;2022-10-23T01:38:05;7.83;;;6.60;;
2542;SDS011;1116;51.502;7.414;2022-10-23T01:40:42;8.47;;;6.57;;
2542;SDS011;1116;51.502;7.414;2022-10-23T01:43:23;7.20;;;4.80;;
2542;SDS011;1116;51.502;7.414;2022-10-23T01:45:57;5.60;;;4.00;;
2542;SDS011;1116;51.502;7.414;2022-10-23T01:48:30;8.67;;;4.00;;
2542;SDS011;1116;51.502;7.414;2022-10-23T01:51:05;7.33;;;3.90;;
2542;SDS011;1116;51.502;7.414;2022-10-23T01:53:39;7.40;;;3.50;;
2542;SDS011;1116;51.502;7.414;2022-10-23T01:56:14;6.70;;;3.40;;
2542;SDS011;1116;51.502;7.414;2022-10-23T01:58:51;4.37;;;3.23;;
2542;SDS011;1116;51.502;7.414;2022-10-23T02:01:26;5.90;;;2.70;;
2542;SDS011;1116;51.502;7.414;2022-10-23T02:03:59;4.93;;;3.40;;
2542;SDS011;1116;51.502;7.414;2022-10-23T02:06:35;8.33;;;3.00;;
2542;SDS011;1116;51.502;7.414;2022-10-23T02:09:12;6.80;;;3.27;;
2542;SDS011;1116;51.502;7.414;2022-10-23T02:11:45;8.40;;;2.90;;
2542;SDS011;1116;51.502;7.414;2022-10-23T02:14:27;4.80;;;2.90;;
2542;SDS011;1116;51.502;7.414;2022-10-23T02:17:08;5.10;;;3.37;;
2542;SDS011;1116;51.502;7.414;2022-10-23T02:19:48;4.70;;;3.10;;
2542;SDS011;1116;51.502;7.414;2022-10-23T02:22:26;6.47;;;3.20;;
2542;SDS011;1116;51.502;7.414;2022-10-23T02:25:02;2.87;;;2.50;;
2542;SDS011;1116;51.502;7.414;2022-10-23T02:27:39;6.50;;;3.27;;
2542;SDS011;1116;51.502;7.414;2022-10-23T02:30:17;4.57;;;2.97;;
2542;SDS011;1116;51.502;7.414;2022-10-23T02:32:53;5.97;;;3.13;;
2542;SDS011;1116;51.502;7.414;2022-10-23T02:35:25;4.37;;;2.63;;
2542;SDS011;1116;51.502;7.414;2022-10-23T02:37:57;2.17;;;2.07;;
2542;SDS011;1116;51.502;7.414;2022-10-23T02:40:30;5.20;;;2.80;;
2542;SDS011;1116;51.502;7.414;2022-10-23T02:43:11;2.80;;;2.33;;
2542;SDS011;1116;51.502;7.414;2022-10-23T02:45:49;4.57;;;2.90;;
2542;SDS011;1116;51.502;7.414;2022-10-23T02:48:29;4.60;;;2.70;;
2542;SDS011;1116;51.502;7.414;2022-10-23T02:51:08;3.53;;;2.80;;
2542;SDS011;1116;51.502;7.414;2022-10-23T02:53:47;7.23;;;3.30;;
2542;SDS011;1116;51.502;7.414;2022-10-23T02:56:27;6.00;;;2.40;;
2542;SDS011;1116;51.502;7.414;2022-10-23T02:59:08;6.40;;;2.53;;
2542;SDS011;1116;51.502;7.414;2022-10-23T03:01:47;4.53;;;2.30;;
2542;SDS011;1116;51.502;7.414;2022-10-23T03:04:22;6.40;;;2.67;;
2542;SDS011;1116;51.502;7.414;2022-10-23T03:06:55;9.33;;;2.87;;
2542;SDS011;1116;51.502;7.414;2022-10-23T03:09:26;5.80;;;2.60;;
2542;SDS011;1116;51.502;7.414;2022-10-23T03:11:57;5.77;;;2.50;;
2542;SDS011;1116;51.502;7.414;2022-10-23T03:14:29;3.23;;;2.30;;
2542;SDS011;1116;51.502;7.414;2022-10-23T03:17:02;5.13;;;2.53;;
2542;SDS011;1116;51.502;7.414;2022-10-23T03:19:33;4.30;;;2.30;;
2542;SDS011;1116;51.502;7.414;2022-10-23T03:22:04;6.47;;;2.20;;
2542;SDS011;1116;51.502;7.414;2022-10-23T03:24:35;4.80;;;2.30;;
2542;SDS011;1116;51.502;7.414;2022-10-23T03:27:06;5.30;;;2.70;;
2542;SDS011;1116;51.502;7.414;2022-10-23T03:29:37;5.17;;;2.30;;
2542;SDS011;1116;51.502;7.414;2022-10-23T03:32:11;3.60;;;2.30;;
2542;SDS011;1116;51.502;7.414;2022-10-23T03:34:42;3.87;;;2.30;;
2542;SDS011;1116;51.502;7.414;2022-10-23T03:37:14;6.60;;;2.50;;
2542;SDS011;1116;51.502;7.414;2022-10-23T03:39:47;4.03;;;2.10;;
2542;SDS011;1116;51.502;7.414;2022-10-23T03:42:18;3.20;;;2.43;;
2542;SDS011;1116;51.502;7.414;2022-10-23T03:44:48;2.80;;;2.27;;
2542;SDS011;1116;51.502;7.414;2022-10-23T03:47:22;5.63;;;3.20;;
2542;SDS011;1116;51.502;7.414;2022-10-23T03:49:53;3.70;;;2.70;;
2542;SDS011;1116;51.502;7.414;2022-10-23T03:52:24;3.20;;;2.43;;
2542;SDS011;1116;51.502;7.414;2022-10-23T03:54:57;3.20;;;2.43;;
2542;SDS011;1116;51.502;7.414;2022-10-23T03:57:28;5.70;;;2.40;;
2542;SDS011;1116;51.502;7.414;2022-10-23T03:59:59;6.00;;;2.40;;
2542;SDS011;1116;51.502;7.414;2022-10-23T04:02:35;3.90;;;2.27;;
2542;SDS011;1116;51.502;7.414;2022-10-23T04:05:06;2.13;;;1.93;;
2542;SDS011;1116;51.502;7.414;2022-10-23T04:07:37;3.93;;;2.47;;
2542;SDS011;1116;51.502;7.414;2022-10-23T04:10:11;4.70;;;2.30;;
2542;SDS011;1116;51.502;7.414;2022-10-23T04:12:43;2.60;;;2.40;;
2542;SDS011;1116;51.502;7.414;2022-10-23T04:15:16;5.80;;;2.53;;
2542;SDS011;1116;51.502;7.414;2022-10-23T04:17:52;4.20;;;2.80;;
2542;SDS011;1116;51.502;7.414;2022-10-23T04:20:23;6.20;;;2.40;;
2542;SDS011;1116;51.502;7.414;2022-10-23T04:22:54;5.17;;;2.40;;
2542;SDS011;1116;51.502;7.414;2022-10-23T04:25:25;2.40;;;2.20;;
2542;SDS011;1116;51.502;7.414;2022-10-23T04:27:59;2.70;;;1.57;;
2542;SDS011;1116;51.502;7.414;2022-10-23T04:30:30;5.83;;;2.37;;
2542;SDS011;1116;51.502;7.414;2022-10-23T04:33:06;4.80;;;2.77;;
2542;SDS011;1116;51.502;7.414;2022-10-23T04:35:36;4.50;;;2.10;;
2542;SDS011;1116;51.502;7.414;2022-10-23T04:38:09;3.87;;;2.10;;
2542;SDS011;1116;51.502;7.414;2022-10-23T04:40:40;4.93;;;2.33;;
2542;SDS011;1116;51.502;7.414;2022-10-23T04:43:10;3.23;;;2.47;;
2542;SDS011;1116;51.502;7.414;2022-10-23T04:45:41;1.73;;;1.63;;
2542;SDS011;1116;51.502;7.414;2022-10-23T04:48:15;2.73;;;1.70;;
2542;SDS011;1116;51.502;7.414;2022-10-23T04:50:53;2.53;;;1.70;;
2542;SDS011;1116;51.502;7.414;2022-10-23T04:53:25;4.57;;;2.10;;
2542;SDS011;1116;51.502;7.414;2022-10-23T04:55:57;4.47;;;1.90;;
2542;SDS011;1116;51.502;7.414;2022-10-23T04:58:29;3.47;;;1.80;;
2542;SDS011;1116;51.502;7.414;2022-10-23T05:00:59;3.63;;;2.00;;
2542;SDS011;1116;51.502;7.414;2022-10-23T05:03:33;2.30;;;1.83;;
2542;SDS011;1116;51.502;7.414;2022-10-23T05:06:07;2.67;;;1.77;;
2542;SDS011;1116;51.502;7.414;2022-10-23T05:08:40;2.00;;;1.70;;
2542;SDS011;1116;51.502;7.414;2022-10-23T05:11:11;3.23;;;1.87;;
2542;SDS011;1116;51.502;7.414;2022-10-23T05:13:41;3.80;;;2.30;;
2542;SDS011;1116;51.502;7.414;2022-10-23T05:16:15;3.40;;;2.20;;
2542;SDS011;1116;51.502;7.414;2022-10-23T05:19:00;2.10;;;1.73;;
2542;SDS011;1116;51.502;7.414;2022-10-23T05:21:31;1.67;;;1.57;;
2542;SDS011;1116;51.502;7.414;2022-10-23T05:24:05;2.23;;;1.77;;
2542;SDS011;1116;51.502;7.414;2022-10-23T05:26:36;3.67;;;1.97;;
2542;SDS011;1116;51.502;7.414;2022-10-23T05:29:07;3.00;;;2.10;;
2542;SDS011;1116;51.502;7.414;2022-10-23T05:31:38;2.00;;;1.60;;
2542;SDS011;1116;51.502;7.414;2022-10-23T05:34:12;3.80;;;2.03;;
2542;SDS011;1116;51.502;7.414;2022-10-23T05:36:46;3.10;;;2.20;;
2542;SDS011;1116;51.502;7.414;2022-10-23T05:39:19;3.30;;;1.80;;
2542;SDS011;1116;51.502;7.414;2022-10-23T05:41:51;3.53;;;2.17;;
2542;SDS011;1116;51.502;7.414;2022-10-23T05:44:22;2.07;;;1.73;;
2542;SDS011;1116;51.502;7.414;2022-10-23T05:46:52;7.03;;;2.53;;
2542;SDS011;1116;51.502;7.414;2022-10-23T05:49:26;3.07;;;1.80;;
2542;SDS011;1116;51.502;7.414;2022-10-23T05:51:57;6.57;;;2.20;;
2542;SDS011;1116;51.502;7.414;2022-10-23T05:54:28;4.90;;;2.67;;
2542;SDS011;1116;51.502;7.414;2022-10-23T05:56:59;4.30;;;2.43;;
2542;SDS011;1116;51.502;7.414;2022-10-23T05:59:30;2.30;;;2.10;;
2542;SDS011;1116;51.502;7.414;2022-10-23T06:02:02;2.20;;;1.90;;
2542;SDS011;1116;51.502;7.414;2022-10-23T06:04:36;5.10;;;2.10;;
2542;SDS011;1116;51.502;7.414;2022-10-23T06:07:06;2.87;;;2.23;;
2542;SDS011;1116;51.502;7.414;2022-10-23T06:09:37;4.90;;;2.80;;
2542;SDS011;1116;51.502;7.414;2022-10-23T06:12:08;3.27;;;2.47;;
2542;SDS011;1116;51.502;7.414;2022-10-23T06:14:39;4.37;;;2.63;;
2542;SDS011;1116;51.502;7.414;2022-10-23T06:17:10;5.23;;;2.37;;
2542;SDS011;1116;51.502;7.414;2022-10-23T06:19:44;2.90;;;1.80;;
2542;SDS011;1116;51.502;7.414;2022-10-23T06:22:14;4.03;;;2.37;;
2542;SDS011;1116;51.502;7.414;2022-10-23T06:24:46;3.37;;;2.70;;
2542;SDS011;1116;51.502;7.414;2022-10-23T06:27:17;2.23;;;2.03;;
2542;SDS011;1116;51.502;7.414;2022-10-23T06:29:48;5.57;;;2.50;;
2542;SDS011;1116;51.502;7.414;2022-10-23T06:32:18;3.67;;;2.30;;
2542;SDS011;1116;51.502;7.414;2022-10-23T06:34:54;5.47;;;2.30;;
2542;SDS011;1116;51.502;7.414;2022-10-23T06:37:25;3.80;;;2.33;;
2542;SDS011;1116;51.502;7.414;2022-10-23T06:39:55;3.23;;;2.40;;
2542;SDS011;1116;51.502;7.414;2022-10-23T06:42:26;3.77;;;2.10;;
2542;SDS011;1116;51.502;7.414;2022-10-23T06:44:58;3.90;;;2.23;;
2542;SDS011;1116;51.502;7.414;2022-10-23T06:47:33;4.60;;;2.20;;
2542;SDS011;1116;51.502;7.414;2022-10-23T06:50:07;3.10;;;2.10;;
2542;SDS011;1116;51.502;7.414;2022-10-23T06:52:41;2.73;;;2.00;;
2542;SDS011;1116;51.502;7.414;2022-10-23T06:55:14;4.53;;;3.07;;
2542;SDS011;1116;51.502;7.414;2022-10-23T06:57:46;4.73;;;2.40;;
2542;SDS011;1116;51.502;7.414;2022-10-23T07:00:19;5.50;;;2.57;;
2542;SDS011;1116;51.502;7.414;2022-10-23T07:02:51;5.27;;;2.47;;
2542;SDS011;1116;51.502;7.414;2022-10-23T07:05:24;2.10;;;1.80;;
2542;SDS011;1116;51.502;7.414;2022-10-23T07:07:55;4.87;;;1.90;;
2542;SDS011;1116;51.502;7.414;2022-10-23T07:10:26;5.03;;;2.17;;
2542;SDS011;1116;51.502;7.414;2022-10-23T07:12:57;5.03;;;1.70;;
2542;SDS011;1116;51.502;7.414;2022-10-23T07:15:29;2.80;;;1.70;;
2542;SDS011;1116;51.502;7.414;2022-10-23T07:18:00;2.03;;;1.90;;
2542;SDS011;1116;51.502;7.414;2022-10-23T07:20:33;4.07;;;1.87;;
2542;SDS011;1116;51.502;7.414;2022-10-23T07:23:05;3.00;;;1.80;;
2542;SDS011;1116;51.502;7.414;2022-10-23T07:25:36;3.00;;;2.53;;
2542;SDS011;1116;51.502;7.414;2022-10-23T07:28:07;2.97;;;1.90;;
2542;SDS011;1116;51.502;7.414;2022-10-23T07:30:38;4.60;;;2.33;;
2542;SDS011;1116;51.502;7.414;2022-10-23T07:33:09;2.30;;;1.63;;
2542;SDS011;1116;51.502;7.414;2022-10-23T07:35:42;4.90;;;2.17;;
2542;SDS011;1116;51.502;7.414;2022-10-23T07:38:15;3.30;;;1.90;;
2542;SDS011;1116;51.502;7.414;2022-10-23T07:40:46;1.83;;;1.40;;
2542;SDS011;1116;51.502;7.414;2022-10-23T07:43:17;5.70;;;2.40;;
2542;SDS011;1116;51.502;7.414;2022-10-23T07:45:48;3.37;;;2.20;;
2542;SDS011;1116;51.502;7.414;2022-10-23T07:48:19;2.80;;;2.03;;
2542;SDS011;1116;51.502;7.414;2022-10-23T07:50:53;6.07;;;2.40;;
2542;SDS011;1116;51.502;7.414;2022-10-23T07:53:29;5.03;;;2.60;;
2542;SDS011;1116;51.502;7.414;2022-10-23T07:56:01;5.97;;;1.77;;
2542;SDS011;1116;51.502;7.414;2022-10-23T07:58:33;3.17;;;2.20;;
2542;SDS011;1116;51.502;7.414;2022-10-23T08:01:09;4.50;;;1.93;;
2542;SDS011;1116;51.502;7.414;2022-10-23T08:03:45;2.97;;;2.13;;
2542;SDS011;1116;51.502;7.414;2022-10-23T08:06:19;3.30;;;1.80;;
2542;SDS011;1116;51.502;7.414;2022-10-23T08:08:56;2.90;;;1.83;;
2542;SDS011;1116;51.502;7.414;2022-10-23T08:11:33;3.43;;;1.87;;
2542;SDS011;1116;51.502;7.414;2022-10-23T08:14:04;5.03;;;1.73;;
2542;SDS011;1116;51.502;7.414;2022-10-23T08:16:36;3.03;;;2.00;;
2542;SDS011;1116;51.502;7.414;2022-10-23T08:19:07;1.63;;;1.40;;
2542;SDS011;1116;51.502;7.414;2022-10-23T08:21:41;4.53;;;2.10;;
2542;SDS011;1116;51.502;7.414;2022-10-23T08:24:12;5.50;;;2.40;;
2542;SDS011;1116;51.502;7.414;2022-10-23T08:26:44;3.60;;;1.90;;
2542;SDS011;1116;51.502;7.414;2022-10-23T08:29:15;2.90;;;1.70;;
2542;SDS011;1116;51.502;7.414;2022-10-23T08:31:45;3.17;;;1.93;;
2542;SDS011;1116;51.502;7.414;2022-10-23T08:34:16;3.60;;;1.80;;
2542;SDS011;1116;51.502;7.414;2022-10-23T08:36:50;2.00;;;1.50;;
2542;SDS011;1116;51.502;7.414;2022-10-23T08:39:21;4.80;;;1.50;;
2542;SDS011;1116;51.502;7.414;2022-10-23T08:41:52;2.90;;;1.43;;
2542;SDS011;1116;51.502;7.414;2022-10-23T08:44:24;4.30;;;1.63;;
2542;SDS011;1116;51.502;7.414;2022-10-23T08:47:01;5.00;;;1.70;;
2542;SDS011;1116;51.502;7.414;2022-10-23T08:49:38;6.60;;;1.60;;
2542;SDS011;1116;51.502;7.414;2022-10-23T08:52:18;3.90;;;1.60;;
2542;SDS011;1116;51.502;7.414;2022-10-23T08:55:03;2.63;;;1.43;;
2542;SDS011;1116;51.502;7.414;2022-10-23T08:57:44;3.07;;;1.37;;
2542;SDS011;1116;51.502;7.414;2022-10-23T09:00:21;5.03;;;1.80;;
2542;SDS011;1116;51.502;7.414;2022-10-23T09:02:52;2.40;;;1.60;;
2542;SDS011;1116;51.502;7.414;2022-10-23T09:05:26;4.87;;;1.57;;
2542;SDS011;1116;51.502;7.414;2022-10-23T09:08:07;4.93;;;1.30;;
2542;SDS011;1116;51.502;7.414;2022-10-23T09:10:57;2.60;;;1.40;;
2542;SDS011;1116;51.502;7.414;2022-10-23T09:13:40;3.33;;;2.17;;
2542;SDS011;1116;51.502;7.414;2022-10-23T09:16:42;6.33;;;2.00;;
2542;SDS011;1116;51.502;7.414;2022-10-23T09:19:23;2.97;;;1.47;;
2542;SDS011;1116;51.502;7.414;2022-10-23T09:21:57;3.30;;;1.47;;
2542;SDS011;1116;51.502;7.414;2022-10-23T09:24:32;1.73;;;1.53;;
2542;SDS011;1116;51.502;7.414;2022-10-23T09:27:03;2.60;;;1.70;;
2542;SDS011;1116;51.502;7.414;2022-10-23T09:29:34;2.90;;;1.60;;
2542;SDS011;1116;51.502;7.414;2022-10-23T09:32:09;2.70;;;1.40;;
2542;SDS011;1116;51.502;7.414;2022-10-23T09:34:48;4.57;;;2.10;;
2542;SDS011;1116;51.502;7.414;2022-10-23T09:37:22;4.60;;;1.73;;
2542;SDS011;1116;51.502;7.414;2022-10-23T09:40:11;3.47;;;1.37;;
2542;SDS011;1116;51.502;7.414;2022-10-23T09:42:49;3.23;;;1.50;;
2542;SDS011;1116;51.502;7.414;2022-10-23T09:45:26;3.80;;;1.60;;
2542;SDS011;1116;51.502;7.414;2022-10-23T09:48:07;5.70;;;1.50;;
2542;SDS011;1116;51.502;7.414;2022-10-23T09:50:49;2.30;;;1.40;;
2542;SDS011;1116;51.502;7.414;2022-10-23T09:53:26;3.07;;;1.87;;
2542;SDS011;1116;51.502;7.414;2022-10-23T09:56:03;2.73;;;1.50;;
2542;SDS011;1116;51.502;7.414;2022-10-23T09:58:39;2.10;;;1.37;;
2542;SDS011;1116;51.502;7.414;2022-10-23T10:01:21;3.83;;;1.40;;
2542;SDS011;1116;51.502;7.414;2022-10-23T10:03:53;4.20;;;1.57;;
2542;SDS011;1116;51.502;7.414;2022-10-23T10:06:26;3.20;;;1.10;;
2542;SDS011;1116;51.502;7.414;2022-10-23T10:08:59;2.30;;;1.33;;
2542;SDS011;1116;51.502;7.414;2022-10-23T10:11:36;2.20;;;1.40;;
2542;SDS011;1116;51.502;7.414;2022-10-23T10:14:22;3.40;;;1.43;;
2542;SDS011;1116;51.502;7.414;2022-10-23T10:17:01;2.00;;;1.40;;
2542;SDS011;1116;51.502;7.414;2022-10-23T10:19:39;1.57;;;1.20;;
2542;SDS011;1116;51.502;7.414;2022-10-23T10:22:34;3.13;;;1.40;;
2542;SDS011;1116;51.502;7.414;2022-10-23T10:25:11;1.60;;;1.37;;
2542;SDS011;1116;51.502;7.414;2022-10-23T10:27:54;2.37;;;1.27;;
2542;SDS011;1116;51.502;7.414;2022-10-23T10:30:40;2.50;;;1.20;;
2542;SDS011;1116;51.502;7.414;2022-10-23T10:33:20;1.50;;;1.17;;
2542;SDS011;1116;51.502;7.414;2022-10-23T10:35:58;3.10;;;1.10;;
2542;SDS011;1116;51.502;7.414;2022-10-23T10:38:42;2.20;;;1.70;;
2542;SDS011;1116;51.502;7.414;2022-10-23T10:44:35;1.20;;;0.97;;
2542;SDS011;1116;51.502;7.414;2022-10-23T10:47:14;1.67;;;1.40;;
2542;SDS011;1116;51.502;7.414;2022-10-23T10:49:54;4.50;;;1.50;;
2542;SDS011;1116;51.502;7.414;2022-10-23T10:52:36;3.13;;;1.60;;
2542;SDS011;1116;51.502;7.414;2022-10-23T10:55:16;4.77;;;1.17;;
2542;SDS011;1116;51.502;7.414;2022-10-23T10:57:54;5.80;;;1.50;;
2542;SDS011;1116;51.502;7.414;2022-10-23T11:00:32;3.10;;;1.27;;
2542;SDS011;1116;51.502;7.414;2022-10-23T11:03:03;2.23;;;1.50;;
2542;SDS011;1116;51.502;7.414;2022-10-23T11:05:44;2.20;;;1.23;;
2542;SDS011;1116;51.502;7.414;2022-10-23T11:08:19;2.33;;;1.30;;
2542;SDS011;1116;51.502;7.414;2022-10-23T11:11:01;1.77;;;1.20;;
2542;SDS011;1116;51.502;7.414;2022-10-23T11:13:37;2.37;;;1.23;;
2542;SDS011;1116;51.502;7.414;2022-10-23T11:16:12;2.53;;;1.70;;
2542;SDS011;1116;51.502;7.414;2022-10-23T11:18:50;7.60;;;1.63;;
2542;SDS011;1116;51.502;7.414;2022-10-23T11:21:33;3.23;;;1.37;;
2542;SDS011;1116;51.502;7.414;2022-10-23T11:24:11;2.47;;;1.60;;
2542;SDS011;1116;51.502;7.414;2022-10-23T11:30:02;6.23;;;1.90;;
2542;SDS011;1116;51.502;7.414;2022-10-23T11:32:51;6.37;;;1.97;;
2542;SDS011;1116;51.502;7.414;2022-10-23T11:35:52;3.30;;;1.90;;
2542;SDS011;1116;51.502;7.414;2022-10-23T11:38:36;2.50;;;1.47;;
2542;SDS011;1116;51.502;7.414;2022-10-23T11:41:15;4.67;;;1.90;;
2542;SDS011;1116;51.502;7.414;2022-10-23T11:43:56;3.20;;;1.40;;
2542;SDS011;1116;51.502;7.414;2022-10-23T11:46:31;3.13;;;1.70;;
2542;SDS011;1116;51.502;7.414;2022-10-23T11:49:18;2.40;;;2.07;;
2542;SDS011;1116;51.502;7.414;2022-10-23T11:51:58;2.30;;;1.47;;
2542;SDS011;1116;51.502;7.414;2022-10-23T11:54:30;3.53;;;1.30;;
2542;SDS011;1116;51.502;7.414;2022-10-23T11:57:08;2.80;;;1.67;;
2542;SDS011;1116;51.502;7.414;2022-10-23T11:59:50;3.53;;;1.77;;
2542;SDS011;1116;51.502;7.414;2022-10-23T12:02:28;2.93;;;1.60;;
2542;SDS011;1116;51.502;7.414;2022-10-23T12:05:24;3.03;;;1.47;;
2542;SDS011;1116;51.502;7.414;2022-10-23T12:08:01;3.37;;;1.63;;
2542;SDS011;1116;51.502;7.414;2022-10-23T12:10:42;4.77;;;1.90;;
2542;SDS011;1116;51.502;7.414;2022-10-23T12:13:27;2.67;;;1.70;;
2542;SDS011;1116;51.502;7.414;2022-10-23T12:16:00;9.00;;;2.07;;
2542;SDS011;1116;51.502;7.414;2022-10-23T12:18:32;15.33;;;1.90;;
2542;SDS011;1116;51.502;7.414;2022-10-23T12:21:17;4.57;;;1.50;;
2542;SDS011;1116;51.502;7.414;2022-10-23T12:23:59;3.43;;;2.00;;
2542;SDS011;1116;51.502;7.414;2022-10-23T12:26:47;2.70;;;1.43;;
2542;SDS011;1116;51.502;7.414;2022-10-23T12:29:46;4.37;;;1.70;;
2542;SDS011;1116;51.502;7.414;2022-10-23T12:32:29;4.20;;;1.37;;
2542;SDS011;1116;51.502;7.414;2022-10-23T12:35:21;5.30;;;1.90;;
2542;SDS011;1116;51.502;7.414;2022-10-23T12:38:07;5.97;;;4.70;;
2542;SDS011;1116;51.502;7.414;2022-10-23T12:40:44;5.90;;;2.90;;
2542;SDS011;1116;51.502;7.414;2022-10-23T12:43:20;5.07;;;2.07;;
2542;SDS011;1116;51.502;7.414;2022-10-23T12:45:57;6.63;;;3.20;;
2542;SDS011;1116;51.502;7.414;2022-10-23T12:48:33;2.33;;;1.93;;
2542;SDS011;1116;51.502;7.414;2022-10-23T12:51:04;5.20;;;2.80;;
2542;SDS011;1116;51.502;7.414;2022-10-23T12:53:42;6.27;;;4.10;;
2542;SDS011;1116;51.502;7.414;2022-10-23T12:56:18;15.33;;;13.23;;
2542;SDS011;1116;51.502;7.414;2022-10-23T12:58:58;7.30;;;3.50;;
2542;SDS011;1116;51.502;7.414;2022-10-23T13:01:33;4.73;;;3.77;;
2542;SDS011;1116;51.502;7.414;2022-10-23T13:04:11;3.13;;;2.07;;
2542;SDS011;1116;51.502;7.414;2022-10-23T13:07:11;5.33;;;2.00;;
2542;SDS011;1116;51.502;7.414;2022-10-23T13:09:56;5.13;;;1.80;;
2542;SDS011;1116;51.502;7.414;2022-10-23T13:12:34;4.10;;;1.77;;
2542;SDS011;1116;51.502;7.414;2022-10-23T13:15:35;4.43;;;1.73;;
2542;SDS011;1116;51.502;7.414;2022-10-23T13:18:10;5.27;;;2.20;;
2542;SDS011;1116;51.502;7.414;2022-10-23T13:20:42;5.23;;;1.70;;
2542;SDS011;1116;51.502;7.414;2022-10-23T13:23:38;10.77;;;2.50;;
2542;SDS011;1116;51.502;7.414;2022-10-23T13:26:23;5.57;;;1.93;;
2542;SDS011;1116;51.502;7.414;2022-10-23T13:28:58;6.30;;;2.53;;
2542;SDS011;1116;51.502;7.414;2022-10-23T13:31:42;3.00;;;1.80;;
2542;SDS011;1116;51.502;7.414;2022-10-23T13:34:16;3.20;;;1.90;;
2542;SDS011;1116;51.502;7.414;2022-10-23T13:37:03;5.20;;;1.83;;
2542;SDS011;1116;51.502;7.414;2022-10-23T13:39:59;4.00;;;1.83;;
2542;SDS011;1116;51.502;7.414;2022-10-23T13:43:14;3.23;;;1.90;;
2542;SDS011;1116;51.502;7.414;2022-10-23T13:45:46;3.97;;;1.93;;
2542;SDS011;1116;51.502;7.414;2022-10-23T13:48:17;4.40;;;2.00;;
2542;SDS011;1116;51.502;7.414;2022-10-23T13:50:52;5.17;;;2.10;;
2542;SDS011;1116;51.502;7.414;2022-10-23T13:53:23;2.83;;;1.70;;
2542;SDS011;1116;51.502;7.414;2022-10-23T13:55:54;8.30;;;1.90;;
2542;SDS011;1116;51.502;7.414;2022-10-23T13:58:27;3.80;;;1.80;;
2542;SDS011;1116;51.502;7.414;2022-10-23T14:01:00;8.77;;;2.13;;
2542;SDS011;1116;51.502;7.414;2022-10-23T14:03:34;3.17;;;1.53;;
2542;SDS011;1116;51.502;7.414;2022-10-23T14:06:09;3.90;;;2.10;;
2542;SDS011;1116;51.502;7.414;2022-10-23T14:08:40;3.43;;;2.20;;
2542;SDS011;1116;51.502;7.414;2022-10-23T14:11:12;4.60;;;1.50;;
2542;SDS011;1116;51.502;7.414;2022-10-23T14:13:50;4.40;;;2.00;;
2542;SDS011;1116;51.502;7.414;2022-10-23T14:16:24;3.00;;;1.60;;
2542;SDS011;1116;51.502;7.414;2022-10-23T14:18:55;4.80;;;2.40;;
2542;SDS011;1116;51.502;7.414;2022-10-23T14:21:26;5.03;;;1.87;;
2542;SDS011;1116;51.502;7.414;2022-10-23T14:23:57;4.83;;;2.27;;
2542;SDS011;1116;51.502;7.414;2022-10-23T14:26:28;4.27;;;2.00;;
2542;SDS011;1116;51.502;7.414;2022-10-23T14:29:03;3.90;;;1.50;;
2542;SDS011;1116;51.502;7.414;2022-10-23T14:31:47;5.27;;;2.17;;
2542;SDS011;1116;51.502;7.414;2022-10-23T14:34:18;2.47;;;1.67;;
2542;SDS011;1116;51.502;7.414;2022-10-23T14:36:49;3.43;;;1.80;;
2542;SDS011;1116;51.502;7.414;2022-10-23T14:39:35;5.13;;;1.83;;
2542;SDS011;1116;51.502;7.414;2022-10-23T14:42:06;3.17;;;1.80;;
2542;SDS011;1116;51.502;7.414;2022-10-23T14:44:39;5.17;;;1.93;;
2542;SDS011;1116;51.502;7.414;2022-10-23T14:47:11;5.37;;;2.10;;
2542;SDS011;1116;51.502;7.414;2022-10-23T14:49:42;4.00;;;1.73;;
2542;SDS011;1116;51.502;7.414;2022-10-23T14:52:15;3.90;;;2.00;;
2542;SDS011;1116;51.502;7.414;2022-10-23T14:54:46;4.90;;;2.10;;
2542;SDS011;1116;51.502;7.414;2022-10-23T14:57:17;4.13;;;2.00;;
2542;SDS011;1116;51.502;7.414;2022-10-23T14:59:51;3.43;;;1.80;;
2542;SDS011;1116;51.502;7.414;2022-10-23T15:02:25;9.53;;;2.43;;
2542;SDS011;1116;51.502;7.414;2022-10-23T15:04:59;3.80;;;1.90;;
2542;SDS011;1116;51.502;7.414;2022-10-23T15:07:31;3.83;;;2.00;;
2542;SDS011;1116;51.502;7.414;2022-10-23T15:10:02;4.10;;;2.10;;
2542;SDS011;1116;51.502;7.414;2022-10-23T15:12:33;3.13;;;2.00;;
2542;SDS011;1116;51.502;7.414;2022-10-23T15:15:07;4.70;;;1.70;;
2542;SDS011;1116;51.502;7.414;2022-10-23T15:17:39;5.37;;;2.10;;
2542;SDS011;1116;51.502;7.414;2022-10-23T15:20:10;5.43;;;2.23;;
2542;SDS011;1116;51.502;7.414;2022-10-23T15:22:41;3.03;;;2.00;;
2542;SDS011;1116;51.502;7.414;2022-10-23T15:25:12;2.90;;;2.00;;
2542;SDS011;1116;51.502;7.414;2022-10-23T15:27:53;4.90;;;2.00;;
2542;SDS011;1116;51.502;7.414;2022-10-23T15:30:26;3.30;;;2.30;;
2542;SDS011;1116;51.502;7.414;2022-10-23T15:32:57;5.33;;;2.23;;
2542;SDS011;1116;51.502;7.414;2022-10-23T15:35:39;4.30;;;2.07;;
2542;SDS011;1116;51.502;7.414;2022-10-23T15:38:10;5.80;;;1.90;;
2542;SDS011;1116;51.502;7.414;2022-10-23T15:40:45;5.30;;;1.87;;
2542;SDS011;1116;51.502;7.414;2022-10-23T15:44:17;4.33;;;2.20;;
2542;SDS011;1116;51.502;7.414;2022-10-23T15:47:38;6.27;;;2.43;;
2542;SDS011;1116;51.502;7.414;2022-10-23T15:50:09;5.17;;;2.53;;
2542;SDS011;1116;51.502;7.414;2022-10-23T15:52:43;7.17;;;2.97;;
2542;SDS011;1116;51.502;7.414;2022-10-23T15:55:16;5.60;;;2.37;;
2542;SDS011;1116;51.502;7.414;2022-10-23T15:57:46;4.27;;;2.10;;
2542;SDS011;1116;51.502;7.414;2022-10-23T16:00:18;5.93;;;2.30;;
2542;SDS011;1116;51.502;7.414;2022-10-23T16:02:51;6.37;;;3.20;;
2542;SDS011;1116;51.502;7.414;2022-10-23T16:05:22;7.67;;;2.87;;
2542;SDS011;1116;51.502;7.414;2022-10-23T16:07:53;4.80;;;2.53;;
2542;SDS011;1116;51.502;7.414;2022-10-23T16:10:23;2.43;;;2.20;;
2542;SDS011;1116;51.502;7.414;2022-10-23T16:12:54;2.90;;;2.30;;